sensor_id;sensor_type;location;lat;lon;timestamp;pressure;altitude;pressure_sealevel;temperature;humidity
46768;BME280;69007;48.978;18.066;2023-07-22T00:00:51;97137.06;;;19.21;100.00
46768;BME280;69007;48.978;18.066;2023-07-22T00:03:17;97141.44;;;19.22;100.00
46768;BME280;69007;48.978;18.066;2023-07-22T00:05:42;97143.50;;;19.25;100.00
46768;BME280;69007;48.978;18.066;2023-07-22T00:08:09;97134.97;;;19.18;100.00
46768;BME280;69007;48.978;18.066;2023-07-22T00:10:34;97127.81;;;19.17;100.00
46768;BME280;69007;48.978;18.066;2023-07-22T00:12:59;97151.50;;;19.18;100.00
46768;BME280;69007;48.978;18.066;2023-07-22T00:15:25;97161.09;;;19.12;100.00
46768;BME280;69007;48.978;18.066;2023-07-22T00:17:51;97127.59;;;19.01;100.00
46768;BME280;69007;48.978;18.066;2023-07-22T00:20:17;97159.31;;;19.16;100.00
46768;BME280;69007;48.978;18.066;2023-07-22T00:22:42;97161.09;;;19.12;100.00
46768;BME280;69007;48.978;18.066;2023-07-22T00:25:10;97174.22;;;19.15;100.00
46768;BME280;69007;48.978;18.066;2023-07-22T00:27:40;97170.88;;;19.09;100.00
46768;BME280;69007;48.978;18.066;2023-07-22T00:30:09;97165.81;;;19.11;100.00
46768;BME280;69007;48.978;18.066;2023-07-22T00:32:35;97186.88;;;19.16;100.00
46768;BME280;69007;48.978;18.066;2023-07-22T00:35:05;97162.25;;;19.11;100.00
46768;BME280;69007;48.978;18.066;2023-07-22T00:37:31;97174.22;;;19.15;100.00
46768;BME280;69007;48.978;18.066;2023-07-22T00:39:57;97184.59;;;19.18;100.00
46768;BME280;69007;48.978;18.066;2023-07-22T00:42:22;97175.19;;;19.19;100.00
46768;BME280;69007;48.978;18.066;2023-07-22T00:44:49;97168.19;;;19.22;100.00
46768;BME280;69007;48.978;18.066;2023-07-22T00:47:14;97177.75;;;19.24;100.00
46768;BME280;69007;48.978;18.066;2023-07-22T00:49:40;97184.22;;;19.28;100.00
46768;BME280;69007;48.978;18.066;2023-07-22T00:52:06;97173.84;;;19.25;100.00
46768;BME280;69007;48.978;18.066;2023-07-22T00:54:31;97172.06;;;19.29;100.00
46768;BME280;69007;48.978;18.066;2023-07-22T00:56:57;97181.78;;;19.27;100.00
46768;BME280;69007;48.978;18.066;2023-07-22T00:59:24;97174.53;;;19.22;100.00
46768;BME280;69007;48.978;18.066;2023-07-22T01:01:50;97164.53;;;19.09;100.00
46768;BME280;69007;48.978;18.066;2023-07-22T01:04:16;97150.13;;;19.03;100.00
46768;BME280;69007;48.978;18.066;2023-07-22T01:06:44;97163.88;;;19.12;100.00
46768;BME280;69007;48.978;18.066;2023-07-22T01:09:09;97161.69;;;18.96;100.00
46768;BME280;69007;48.978;18.066;2023-07-22T01:11:35;97161.88;;;18.83;100.00
46768;BME280;69007;48.978;18.066;2023-07-22T01:14:00;97166.75;;;18.77;100.00
46768;BME280;69007;48.978;18.066;2023-07-22T01:16:27;97159.00;;;18.70;100.00
46768;BME280;69007;48.978;18.066;2023-07-22T01:18:53;97179.28;;;18.74;100.00
46768;BME280;69007;48.978;18.066;2023-07-22T01:21:22;97153.34;;;18.67;100.00
46768;BME280;69007;48.978;18.066;2023-07-22T01:23:47;97166.78;;;18.68;100.00
46768;BME280;69007;48.978;18.066;2023-07-22T01:26:13;97187.53;;;18.74;100.00
46768;BME280;69007;48.978;18.066;2023-07-22T01:28:39;97182.81;;;18.75;100.00
46768;BME280;69007;48.978;18.066;2023-07-22T01:31:04;97173.44;;;18.67;100.00
46768;BME280;69007;48.978;18.066;2023-07-22T01:33:31;97180.88;;;18.75;100.00
46768;BME280;69007;48.978;18.066;2023-07-22T01:35:58;97191.13;;;18.66;100.00
46768;BME280;69007;48.978;18.066;2023-07-22T01:38:23;97193.56;;;18.59;100.00
46768;BME280;69007;48.978;18.066;2023-07-22T01:40:49;97193.75;;;18.54;100.00
46768;BME280;69007;48.978;18.066;2023-07-22T01:43:14;97185.81;;;18.52;100.00
46768;BME280;69007;48.978;18.066;2023-07-22T01:45:39;97180.94;;;18.49;100.00
46768;BME280;69007;48.978;18.066;2023-07-22T01:48:05;97187.72;;;18.60;100.00
46768;BME280;69007;48.978;18.066;2023-07-22T01:50:31;97181.75;;;18.58;100.00
46768;BME280;69007;48.978;18.066;2023-07-22T01:52:57;97199.88;;;18.68;100.00
46768;BME280;69007;48.978;18.066;2023-07-22T01:55:22;97195.81;;;18.74;100.00
46768;BME280;69007;48.978;18.066;2023-07-22T01:57:48;97208.75;;;18.74;100.00
46768;BME280;69007;48.978;18.066;2023-07-22T02:00:13;97202.16;;;18.66;100.00
46768;BME280;69007;48.978;18.066;2023-07-22T02:02:41;97196.31;;;18.68;100.00
46768;BME280;69007;48.978;18.066;2023-07-22T02:05:07;97194.97;;;18.74;100.00
46768;BME280;69007;48.978;18.066;2023-07-22T02:07:33;97187.88;;;18.73;100.00
46768;BME280;69007;48.978;18.066;2023-07-22T02:09:59;97187.34;;;18.71;100.00
46768;BME280;69007;48.978;18.066;2023-07-22T02:12:24;97198.56;;;18.66;100.00
46768;BME280;69007;48.978;18.066;2023-07-22T02:14:49;97198.56;;;18.66;100.00
46768;BME280;69007;48.978;18.066;2023-07-22T02:17:15;97205.53;;;18.72;100.00
46768;BME280;69007;48.978;18.066;2023-07-22T02:19:40;97216.38;;;18.77;100.00
46768;BME280;69007;48.978;18.066;2023-07-22T02:22:05;97211.31;;;18.79;100.00
46768;BME280;69007;48.978;18.066;2023-07-22T02:24:31;97218.66;;;18.84;100.00
46768;BME280;69007;48.978;18.066;2023-07-22T02:26:57;97209.06;;;18.81;100.00
46768;BME280;69007;48.978;18.066;2023-07-22T02:29:22;97213.44;;;18.82;100.00
46768;BME280;69007;48.978;18.066;2023-07-22T02:31:47;97232.91;;;18.86;100.00
46768;BME280;69007;48.978;18.066;2023-07-22T02:34:13;97218.16;;;18.82;100.00
46768;BME280;69007;48.978;18.066;2023-07-22T02:36:38;97218.47;;;18.80;100.00
46768;BME280;69007;48.978;18.066;2023-07-22T02:39:03;97239.88;;;18.92;100.00
46768;BME280;69007;48.978;18.066;2023-07-22T02:41:29;97245.22;;;18.88;100.00
46768;BME280;69007;48.978;18.066;2023-07-22T02:43:54;97241.16;;;18.77;100.00
46768;BME280;69007;48.978;18.066;2023-07-22T02:46:19;97237.28;;;18.78;100.00
46768;BME280;69007;48.978;18.066;2023-07-22T02:48:45;97230.00;;;18.73;100.00
46768;BME280;69007;48.978;18.066;2023-07-22T02:51:10;97247.34;;;18.83;100.00
46768;BME280;69007;48.978;18.066;2023-07-22T02:53:36;97256.44;;;18.83;100.00
46768;BME280;69007;48.978;18.066;2023-07-22T02:56:07;97251.72;;;18.84;100.00
46768;BME280;69007;48.978;18.066;2023-07-22T02:58:33;97257.72;;;18.86;100.00
46768;BME280;69007;48.978;18.066;2023-07-22T03:00:59;97243.75;;;18.82;100.00
46768;BME280;69007;48.978;18.066;2023-07-22T03:03:24;97248.97;;;18.84;100.00
46768;BME280;69007;48.978;18.066;2023-07-22T03:05:50;97252.34;;;18.81;100.00
46768;BME280;69007;48.978;18.066;2023-07-22T03:08:17;97248.63;;;18.85;100.00
46768;BME280;69007;48.978;18.066;2023-07-22T03:10:43;97237.63;;;18.76;100.00
46768;BME280;69007;48.978;18.066;2023-07-22T03:13:13;97254.78;;;18.82;100.00
46768;BME280;69007;48.978;18.066;2023-07-22T03:15:39;97243.94;;;18.77;100.00
46768;BME280;69007;48.978;18.066;2023-07-22T03:18:04;97248.63;;;18.85;100.00
46768;BME280;69007;48.978;18.066;2023-07-22T03:20:31;97248.78;;;18.80;100.00
46768;BME280;69007;48.978;18.066;2023-07-22T03:22:57;97256.09;;;18.85;100.00
46768;BME280;69007;48.978;18.066;2023-07-22T03:25:22;97241.81;;;18.74;100.00
46768;BME280;69007;48.978;18.066;2023-07-22T03:27:47;97287.22;;;18.85;100.00
46768;BME280;69007;48.978;18.066;2023-07-22T03:30:15;97278.31;;;18.88;100.00
46768;BME280;69007;48.978;18.066;2023-07-22T03:32:45;97265.19;;;18.85;100.00
46768;BME280;69007;48.978;18.066;2023-07-22T03:35:11;97275.22;;;18.81;100.00
46768;BME280;69007;48.978;18.066;2023-07-22T03:37:37;97259.03;;;18.79;100.00
46768;BME280;69007;48.978;18.066;2023-07-22T03:40:06;97261.78;;;18.79;100.00
46768;BME280;69007;48.978;18.066;2023-07-22T03:42:34;97262.56;;;18.80;100.00
46768;BME280;69007;48.978;18.066;2023-07-22T03:44:59;97289.66;;;18.87;100.00
46768;BME280;69007;48.978;18.066;2023-07-22T03:47:25;97285.13;;;18.91;100.00
46768;BME280;69007;48.978;18.066;2023-07-22T03:49:50;97257.88;;;18.89;100.00
46768;BME280;69007;48.978;18.066;2023-07-22T03:52:16;97276.16;;;19.03;100.00
46768;BME280;69007;48.978;18.066;2023-07-22T03:54:44;97294.63;;;19.11;100.00
46768;BME280;69007;48.978;18.066;2023-07-22T03:57:09;97279.06;;;19.06;100.00
46768;BME280;69007;48.978;18.066;2023-07-22T03:59:34;97279.41;;;19.05;100.00
46768;BME280;69007;48.978;18.066;2023-07-22T04:02:00;97305.66;;;19.11;100.00
46768;BME280;69007;48.978;18.066;2023-07-22T04:04:25;97292.34;;;19.13;100.00
46768;BME280;69007;48.978;18.066;2023-07-22T04:06:51;97284.53;;;19.15;100.00
46768;BME280;69007;48.978;18.066;2023-07-22T04:09:16;97303.16;;;19.27;100.00
46768;BME280;69007;48.978;18.066;2023-07-22T04:11:41;97303.47;;;19.34;100.00
46768;BME280;69007;48.978;18.066;2023-07-22T04:14:07;97310.59;;;19.35;100.00
46768;BME280;69007;48.978;18.066;2023-07-22T04:16:32;97285.53;;;19.19;100.00
46768;BME280;69007;48.978;18.066;2023-07-22T04:18:58;97295.72;;;19.19;100.00
46768;BME280;69007;48.978;18.066;2023-07-22T04:21:23;97316.81;;;19.23;100.00
46768;BME280;69007;48.978;18.066;2023-07-22T04:23:48;97312.44;;;19.22;100.00
46768;BME280;69007;48.978;18.066;2023-07-22T04:26:14;97302.25;;;19.14;100.00
46768;BME280;69007;48.978;18.066;2023-07-22T04:28:39;97308.06;;;19.21;100.00
46768;BME280;69007;48.978;18.066;2023-07-22T04:31:05;97318.44;;;19.24;100.00
46768;BME280;69007;48.978;18.066;2023-07-22T04:33:30;97304.81;;;19.19;100.00
46768;BME280;69007;48.978;18.066;2023-07-22T04:35:58;97317.47;;;19.20;100.00
46768;BME280;69007;48.978;18.066;2023-07-22T04:38:24;97300.44;;;19.18;100.00
46768;BME280;69007;48.978;18.066;2023-07-22T04:40:49;97329.09;;;19.34;100.00
46768;BME280;69007;48.978;18.066;2023-07-22T04:43:15;97326.63;;;19.42;100.00
46768;BME280;69007;48.978;18.066;2023-07-22T04:45:40;97320.97;;;19.47;100.00
46768;BME280;69007;48.978;18.066;2023-07-22T04:48:06;97315.25;;;19.52;100.00
46768;BME280;69007;48.978;18.066;2023-07-22T04:50:32;97335.81;;;19.63;100.00
46768;BME280;69007;48.978;18.066;2023-07-22T04:52:57;97342.09;;;19.73;100.00
46768;BME280;69007;48.978;18.066;2023-07-22T04:55:22;97349.66;;;19.93;100.00
46768;BME280;69007;48.978;18.066;2023-07-22T04:57:48;97373.25;;;20.12;100.00
46768;BME280;69007;48.978;18.066;2023-07-22T05:00:14;97364.50;;;20.10;100.00
46768;BME280;69007;48.978;18.066;2023-07-22T05:02:42;97372.69;;;19.97;100.00
46768;BME280;69007;48.978;18.066;2023-07-22T05:05:11;97348.59;;;19.68;100.00
46768;BME280;69007;48.978;18.066;2023-07-22T05:07:37;97359.41;;;19.52;100.00
46768;BME280;69007;48.978;18.066;2023-07-22T05:10:02;97351.63;;;19.45;100.00
46768;BME280;69007;48.978;18.066;2023-07-22T05:12:28;97363.56;;;19.67;100.00
46768;BME280;69007;48.978;18.066;2023-07-22T05:14:53;97361.47;;;19.64;100.00
46768;BME280;69007;48.978;18.066;2023-07-22T05:17:18;97355.78;;;19.60;100.00
46768;BME280;69007;48.978;18.066;2023-07-22T05:19:43;97343.16;;;19.50;100.00
46768;BME280;69007;48.978;18.066;2023-07-22T05:22:09;97361.50;;;19.55;100.00
46768;BME280;69007;48.978;18.066;2023-07-22T05:24:35;97350.63;;;19.50;100.00
46768;BME280;69007;48.978;18.066;2023-07-22T05:27:00;97363.28;;;19.51;100.00
46768;BME280;69007;48.978;18.066;2023-07-22T05:29:25;97370.25;;;19.48;100.00
46768;BME280;69007;48.978;18.066;2023-07-22T05:31:51;97365.44;;;19.45;100.00
46768;BME280;69007;48.978;18.066;2023-07-22T05:34:16;97363.00;;;19.44;100.00
46768;BME280;69007;48.978;18.066;2023-07-22T05:36:41;97376.63;;;19.49;100.00
46768;BME280;69007;48.978;18.066;2023-07-22T05:39:07;97375.31;;;19.55;100.00
46768;BME280;69007;48.978;18.066;2023-07-22T05:41:33;97377.81;;;19.78;100.00
46768;BME280;69007;48.978;18.066;2023-07-22T05:43:58;97375.25;;;20.02;100.00
46768;BME280;69007;48.978;18.066;2023-07-22T05:46:24;97394.31;;;20.25;100.00
46768;BME280;69007;48.978;18.066;2023-07-22T05:48:49;97396.28;;;20.16;100.00
46768;BME280;69007;48.978;18.066;2023-07-22T05:51:15;97385.81;;;20.00;100.00
46768;BME280;69007;48.978;18.066;2023-07-22T05:53:40;97380.69;;;19.90;100.00
46768;BME280;69007;48.978;18.066;2023-07-22T05:56:05;97384.78;;;19.84;100.00
46768;BME280;69007;48.978;18.066;2023-07-22T05:58:31;97381.53;;;20.12;100.00
46768;BME280;69007;48.978;18.066;2023-07-22T06:00:56;97387.25;;;20.36;100.00
46768;BME280;69007;48.978;18.066;2023-07-22T06:03:22;97397.22;;;20.50;100.00
46768;BME280;69007;48.978;18.066;2023-07-22T06:05:47;97381.50;;;20.41;100.00
46768;BME280;69007;48.978;18.066;2023-07-22T06:08:13;97389.81;;;20.41;100.00
46768;BME280;69007;48.978;18.066;2023-07-22T06:10:40;97391.72;;;21.25;100.00
46768;BME280;69007;48.978;18.066;2023-07-22T06:13:05;97409.03;;;22.17;100.00
46768;BME280;69007;48.978;18.066;2023-07-22T06:15:31;97402.91;;;22.49;100.00
46768;BME280;69007;48.978;18.066;2023-07-22T06:17:56;97407.44;;;22.29;100.00
46768;BME280;69007;48.978;18.066;2023-07-22T06:20:22;97412.03;;;21.87;100.00
46768;BME280;69007;48.978;18.066;2023-07-22T06:22:47;97415.91;;;21.49;100.00
46768;BME280;69007;48.978;18.066;2023-07-22T06:25:12;97410.94;;;21.22;100.00
46768;BME280;69007;48.978;18.066;2023-07-22T06:27:39;97415.56;;;20.96;100.00
46768;BME280;69007;48.978;18.066;2023-07-22T06:30:05;97410.13;;;20.67;100.00
46768;BME280;69007;48.978;18.066;2023-07-22T06:32:30;97407.13;;;20.51;100.00
46768;BME280;69007;48.978;18.066;2023-07-22T06:34:57;97406.97;;;20.47;100.00
46768;BME280;69007;48.978;18.066;2023-07-22T06:37:23;97423.91;;;20.46;100.00
46768;BME280;69007;48.978;18.066;2023-07-22T06:39:49;97423.16;;;20.87;100.00
46768;BME280;69007;48.978;18.066;2023-07-22T06:42:14;97422.78;;;21.43;100.00
46768;BME280;69007;48.978;18.066;2023-07-22T06:44:40;97427.25;;;21.57;100.00
46768;BME280;69007;48.978;18.066;2023-07-22T06:47:05;97430.25;;;21.30;100.00
46768;BME280;69007;48.978;18.066;2023-07-22T06:49:31;97442.25;;;21.68;100.00
46768;BME280;69007;48.978;18.066;2023-07-22T06:51:56;97431.22;;;22.05;100.00
46768;BME280;69007;48.978;18.066;2023-07-22T06:54:22;97425.22;;;22.40;100.00
46768;BME280;69007;48.978;18.066;2023-07-22T06:56:47;97415.66;;;22.90;97.69
46768;BME280;69007;48.978;18.066;2023-07-22T06:59:13;97421.22;;;23.18;97.44
46768;BME280;69007;48.978;18.066;2023-07-22T07:01:38;97426.13;;;23.09;93.41
46768;BME280;69007;48.978;18.066;2023-07-22T07:04:03;97449.22;;;23.01;96.75
46768;BME280;69007;48.978;18.066;2023-07-22T07:06:29;97454.66;;;23.10;94.42
46768;BME280;69007;48.978;18.066;2023-07-22T07:08:59;97446.81;;;23.12;91.44
46768;BME280;69007;48.978;18.066;2023-07-22T07:11:25;97428.91;;;22.97;90.82
46768;BME280;69007;48.978;18.066;2023-07-22T07:13:51;97452.00;;;23.13;90.89
46768;BME280;69007;48.978;18.066;2023-07-22T07:16:26;97437.06;;;23.18;84.51
46768;BME280;69007;48.978;18.066;2023-07-22T07:18:52;97451.78;;;23.34;87.66
46768;BME280;69007;48.978;18.066;2023-07-22T07:21:18;97449.94;;;23.39;88.48
46768;BME280;69007;48.978;18.066;2023-07-22T07:23:44;97476.88;;;23.66;86.55
46768;BME280;69007;48.978;18.066;2023-07-22T07:26:10;97449.91;;;23.67;83.96
46768;BME280;69007;48.978;18.066;2023-07-22T07:28:35;97465.09;;;23.57;82.73
46768;BME280;69007;48.978;18.066;2023-07-22T07:31:00;97463.69;;;23.63;80.69
46768;BME280;69007;48.978;18.066;2023-07-22T07:33:26;97461.94;;;23.71;82.06
46768;BME280;69007;48.978;18.066;2023-07-22T07:35:51;97470.50;;;23.94;80.54
46768;BME280;69007;48.978;18.066;2023-07-22T07:38:17;97475.41;;;23.85;79.72
46768;BME280;69007;48.978;18.066;2023-07-22T07:40:42;97475.81;;;23.71;80.30
46768;BME280;69007;48.978;18.066;2023-07-22T07:43:08;97462.44;;;23.32;79.68
46768;BME280;69007;48.978;18.066;2023-07-22T07:45:33;97485.66;;;23.12;81.10
46768;BME280;69007;48.978;18.066;2023-07-22T07:47:58;97473.69;;;22.83;83.28
46768;BME280;69007;48.978;18.066;2023-07-22T07:50:24;97492.78;;;22.72;85.07
46768;BME280;69007;48.978;18.066;2023-07-22T07:52:49;97480.94;;;22.88;83.77
46768;BME280;69007;48.978;18.066;2023-07-22T07:55:14;97497.41;;;23.21;81.83
46768;BME280;69007;48.978;18.066;2023-07-22T07:57:40;97507.03;;;23.24;79.82
46768;BME280;69007;48.978;18.066;2023-07-22T08:00:06;97495.31;;;23.30;76.48
46768;BME280;69007;48.978;18.066;2023-07-22T08:02:34;97506.53;;;23.34;74.34
46768;BME280;69007;48.978;18.066;2023-07-22T08:05:00;97507.44;;;23.66;74.74
46768;BME280;69007;48.978;18.066;2023-07-22T08:07:25;97501.09;;;23.82;73.57
46768;BME280;69007;48.978;18.066;2023-07-22T08:09:50;97509.91;;;23.84;73.44
46768;BME280;69007;48.978;18.066;2023-07-22T08:12:17;97517.31;;;23.80;72.38
46768;BME280;69007;48.978;18.066;2023-07-22T08:14:44;97504.44;;;23.59;73.21
46768;BME280;69007;48.978;18.066;2023-07-22T08:17:09;97536.00;;;23.39;73.96
46768;BME280;69007;48.978;18.066;2023-07-22T08:19:35;97524.06;;;22.97;75.55
46768;BME280;69007;48.978;18.066;2023-07-22T08:22:00;97522.59;;;22.63;76.77
46768;BME280;69007;48.978;18.066;2023-07-22T08:24:26;97528.50;;;22.49;77.34
46768;BME280;69007;48.978;18.066;2023-07-22T08:26:51;97543.16;;;22.74;78.36
46768;BME280;69007;48.978;18.066;2023-07-22T08:29:16;97528.22;;;23.04;74.25
46768;BME280;69007;48.978;18.066;2023-07-22T08:31:42;97526.00;;;23.22;74.13
46768;BME280;69007;48.978;18.066;2023-07-22T08:34:07;97523.94;;;23.47;73.10
46768;BME280;69007;48.978;18.066;2023-07-22T08:36:32;97530.03;;;23.52;73.61
46768;BME280;69007;48.978;18.066;2023-07-22T08:38:58;97526.94;;;23.13;72.13
46768;BME280;69007;48.978;18.066;2023-07-22T08:41:24;97531.69;;;23.00;73.39
46768;BME280;69007;48.978;18.066;2023-07-22T08:43:51;97528.66;;;23.06;72.94
46768;BME280;69007;48.978;18.066;2023-07-22T08:46:19;97546.09;;;23.31;73.37
46768;BME280;69007;48.978;18.066;2023-07-22T08:48:47;97548.59;;;23.36;72.77
46768;BME280;69007;48.978;18.066;2023-07-22T08:51:16;97533.44;;;23.46;71.36
46768;BME280;69007;48.978;18.066;2023-07-22T08:53:44;97551.88;;;23.38;69.98
46768;BME280;69007;48.978;18.066;2023-07-22T08:56:10;97538.69;;;23.35;72.55
46768;BME280;69007;48.978;18.066;2023-07-22T08:58:37;97531.75;;;23.57;71.08
46768;BME280;69007;48.978;18.066;2023-07-22T09:01:04;97533.22;;;23.67;70.62
46768;BME280;69007;48.978;18.066;2023-07-22T09:03:30;97537.91;;;23.79;69.63
46768;BME280;69007;48.978;18.066;2023-07-22T09:05:56;97535.84;;;23.76;67.99
46768;BME280;69007;48.978;18.066;2023-07-22T09:08:22;97537.91;;;23.91;68.03
46768;BME280;69007;48.978;18.066;2023-07-22T09:10:48;97548.22;;;24.06;69.23
46768;BME280;69007;48.978;18.066;2023-07-22T09:13:14;97542.31;;;24.08;67.95
46768;BME280;69007;48.978;18.066;2023-07-22T09:15:40;97526.91;;;24.10;67.69
46768;BME280;69007;48.978;18.066;2023-07-22T09:18:05;97549.22;;;24.30;64.77
46768;BME280;69007;48.978;18.066;2023-07-22T09:20:31;97550.19;;;24.22;62.83
46768;BME280;69007;48.978;18.066;2023-07-22T09:22:57;97544.56;;;24.18;64.19
46768;BME280;69007;48.978;18.066;2023-07-22T09:25:25;97539.22;;;23.97;64.08
46768;BME280;69007;48.978;18.066;2023-07-22T09:27:52;97546.06;;;24.00;65.79
46768;BME280;69007;48.978;18.066;2023-07-22T09:30:28;97548.97;;;24.19;64.01
46768;BME280;69007;48.978;18.066;2023-07-22T09:33:08;97556.56;;;24.38;65.90
46768;BME280;69007;48.978;18.066;2023-07-22T09:38:09;97543.66;;;24.30;64.37
46768;BME280;69007;48.978;18.066;2023-07-22T09:40:34;97555.88;;;24.41;64.20
46768;BME280;69007;48.978;18.066;2023-07-22T09:43:03;97545.94;;;24.40;65.24
46768;BME280;69007;48.978;18.066;2023-07-22T09:45:29;97551.50;;;24.40;64.06
46768;BME280;69007;48.978;18.066;2023-07-22T09:47:56;97564.06;;;24.50;62.25
46768;BME280;69007;48.978;18.066;2023-07-22T09:50:23;97554.63;;;24.71;61.70
46768;BME280;69007;48.978;18.066;2023-07-22T09:52:56;97561.28;;;24.66;54.70
46768;BME280;69007;48.978;18.066;2023-07-22T09:55:28;97563.69;;;24.68;59.53
46768;BME280;69007;48.978;18.066;2023-07-22T09:58:02;97545.56;;;24.58;56.44
46768;BME280;69007;48.978;18.066;2023-07-22T10:00:29;97557.25;;;24.63;58.83
46768;BME280;69007;48.978;18.066;2023-07-22T10:03:00;97536.59;;;24.49;58.50
46768;BME280;69007;48.978;18.066;2023-07-22T10:05:27;97546.75;;;24.57;60.49
46768;BME280;69007;48.978;18.066;2023-07-22T10:07:57;97558.03;;;24.64;59.91
46768;BME280;69007;48.978;18.066;2023-07-22T10:10:26;97550.13;;;24.66;57.72
46768;BME280;69007;48.978;18.066;2023-07-22T10:12:53;97571.25;;;24.67;57.90
46768;BME280;69007;48.978;18.066;2023-07-22T10:15:19;97551.69;;;24.63;58.66
46768;BME280;69007;48.978;18.066;2023-07-22T10:17:45;97556.06;;;24.49;58.44
46768;BME280;69007;48.978;18.066;2023-07-22T10:20:12;97568.19;;;24.56;59.73
46768;BME280;69007;48.978;18.066;2023-07-22T10:22:44;97564.13;;;24.70;60.37
46768;BME280;69007;48.978;18.066;2023-07-22T10:25:12;97568.03;;;24.65;61.10
46768;BME280;69007;48.978;18.066;2023-07-22T10:27:39;97557.59;;;24.62;59.82
46768;BME280;69007;48.978;18.066;2023-07-22T10:30:06;97555.72;;;24.50;59.83
46768;BME280;69007;48.978;18.066;2023-07-22T10:32:34;97557.13;;;24.60;58.66
46768;BME280;69007;48.978;18.066;2023-07-22T10:35:00;97559.47;;;24.58;59.16
46768;BME280;69007;48.978;18.066;2023-07-22T10:37:32;97548.72;;;24.56;55.78
46768;BME280;69007;48.978;18.066;2023-07-22T10:43:00;97543.94;;;24.73;56.82
46768;BME280;69007;48.978;18.066;2023-07-22T10:45:40;97549.31;;;24.50;55.67
46768;BME280;69007;48.978;18.066;2023-07-22T10:48:11;97563.25;;;24.34;58.36
46768;BME280;69007;48.978;18.066;2023-07-22T10:53:10;97543.09;;;24.08;60.11
46768;BME280;69007;48.978;18.066;2023-07-22T10:56:04;97549.84;;;23.79;57.47
46768;BME280;69007;48.978;18.066;2023-07-22T11:07:00;97545.00;;;24.36;55.52
46768;BME280;69007;48.978;18.066;2023-07-22T11:11:58;97560.03;;;24.03;59.51
46768;BME280;69007;48.978;18.066;2023-07-22T11:16:50;97541.25;;;24.13;57.54
46768;BME280;69007;48.978;18.066;2023-07-22T11:19:18;97550.94;;;24.19;59.08
46768;BME280;69007;48.978;18.066;2023-07-22T11:21:45;97560.63;;;24.41;58.04
46768;BME280;69007;48.978;18.066;2023-07-22T11:24:11;97555.69;;;24.34;58.02
46768;BME280;69007;48.978;18.066;2023-07-22T11:26:37;97535.84;;;24.20;57.71
46768;BME280;69007;48.978;18.066;2023-07-22T11:29:03;97545.25;;;24.15;58.39
46768;BME280;69007;48.978;18.066;2023-07-22T11:31:36;97556.84;;;24.33;60.39
46768;BME280;69007;48.978;18.066;2023-07-22T11:34:05;97555.06;;;24.41;58.54
46768;BME280;69007;48.978;18.066;2023-07-22T11:36:31;97546.72;;;24.41;56.92
46768;BME280;69007;48.978;18.066;2023-07-22T11:39:07;97565.91;;;24.46;55.11
46768;BME280;69007;48.978;18.066;2023-07-22T11:41:33;97551.81;;;24.55;56.33
46768;BME280;69007;48.978;18.066;2023-07-22T11:44:00;97536.66;;;24.68;53.09
46768;BME280;69007;48.978;18.066;2023-07-22T11:46:27;97526.19;;;24.45;53.13
46768;BME280;69007;48.978;18.066;2023-07-22T11:48:53;97532.63;;;24.50;51.29
46768;BME280;69007;48.978;18.066;2023-07-22T11:51:25;97534.59;;;24.33;50.12
46768;BME280;69007;48.978;18.066;2023-07-22T11:53:52;97517.19;;;24.36;53.15
46768;BME280;69007;48.978;18.066;2023-07-22T11:56:22;97535.34;;;24.62;52.26
46768;BME280;69007;48.978;18.066;2023-07-22T11:58:52;97534.22;;;24.82;51.54
46768;BME280;69007;48.978;18.066;2023-07-22T12:01:19;97510.50;;;25.05;51.31
46768;BME280;69007;48.978;18.066;2023-07-22T12:03:45;97536.19;;;25.33;50.73
46768;BME280;69007;48.978;18.066;2023-07-22T12:06:10;97514.38;;;25.19;50.37
46768;BME280;69007;48.978;18.066;2023-07-22T12:08:36;97535.72;;;24.96;50.74
46768;BME280;69007;48.978;18.066;2023-07-22T12:11:03;97532.94;;;24.96;51.53
46768;BME280;69007;48.978;18.066;2023-07-22T12:13:34;97526.25;;;24.81;52.30
46768;BME280;69007;48.978;18.066;2023-07-22T12:16:02;97529.03;;;24.81;51.73
46768;BME280;69007;48.978;18.066;2023-07-22T12:18:44;97508.66;;;24.77;48.78
46768;BME280;69007;48.978;18.066;2023-07-22T12:21:09;97513.75;;;24.91;52.16
46768;BME280;69007;48.978;18.066;2023-07-22T12:23:36;97522.56;;;25.12;52.67
46768;BME280;69007;48.978;18.066;2023-07-22T12:26:02;97505.28;;;25.23;50.96
46768;BME280;69007;48.978;18.066;2023-07-22T12:28:27;97497.75;;;25.23;50.64
46768;BME280;69007;48.978;18.066;2023-07-22T12:30:52;97513.19;;;25.36;50.99
46768;BME280;69007;48.978;18.066;2023-07-22T12:33:18;97501.78;;;25.26;49.82
46768;BME280;69007;48.978;18.066;2023-07-22T12:35:43;97499.63;;;25.35;51.00
46768;BME280;69007;48.978;18.066;2023-07-22T12:38:08;97503.13;;;25.51;51.78
46768;BME280;69007;48.978;18.066;2023-07-22T12:40:34;97500.91;;;25.22;49.30
46768;BME280;69007;48.978;18.066;2023-07-22T12:42:59;97492.47;;;25.18;50.75
46768;BME280;69007;48.978;18.066;2023-07-22T12:45:24;97499.72;;;25.23;50.82
46768;BME280;69007;48.978;18.066;2023-07-22T12:47:50;97495.94;;;25.31;50.81
46768;BME280;69007;48.978;18.066;2023-07-22T12:50:16;97473.06;;;25.22;49.03
46768;BME280;69007;48.978;18.066;2023-07-22T12:52:41;97491.06;;;25.08;50.38
46768;BME280;69007;48.978;18.066;2023-07-22T12:55:07;97467.47;;;25.02;51.03
46768;BME280;69007;48.978;18.066;2023-07-22T12:57:32;97483.84;;;25.23;50.46
46768;BME280;69007;48.978;18.066;2023-07-22T12:59:57;97478.63;;;25.22;50.48
46768;BME280;69007;48.978;18.066;2023-07-22T13:02:23;97480.69;;;25.25;49.63